sensor_id;sensor_type;location;lat;lon;timestamp;P1;durP1;ratioP1;P2;durP2;ratioP2
65535;SDS011;52145;49.342;9.116;2022-08-19T00:01:23;12.90;;;10.48;;
65535;SDS011;52145;49.342;9.116;2022-08-19T00:03:50;12.43;;;10.63;;
65535;SDS011;52145;49.342;9.116;2022-08-19T00:06:16;12.68;;;10.90;;
65535;SDS011;52145;49.342;9.116;2022-08-19T00:08:42;13.48;;;10.70;;
65535;SDS011;52145;49.342;9.116;2022-08-19T00:11:08;16.88;;;11.45;;
65535;SDS011;52145;49.342;9.116;2022-08-19T00:13:34;15.05;;;11.00;;
65535;SDS011;52145;49.342;9.116;2022-08-19T00:15:59;12.52;;;11.23;;
65535;SDS011;52145;49.342;9.116;2022-08-19T00:18:25;15.32;;;10.57;;
65535;SDS011;52145;49.342;9.116;2022-08-19T00:20:51;15.45;;;11.45;;
65535;SDS011;52145;49.342;9.116;2022-08-19T00:23:17;12.35;;;10.85;;
65535;SDS011;52145;49.342;9.116;2022-08-19T00:25:43;14.00;;;10.77;;
65535;SDS011;52145;49.342;9.116;2022-08-19T00:28:09;17.02;;;11.35;;
65535;SDS011;52145;49.342;9.116;2022-08-19T00:30:35;15.02;;;11.90;;
65535;SDS011;52145;49.342;9.116;2022-08-19T00:33:01;13.60;;;11.70;;
65535;SDS011;52145;49.342;9.116;2022-08-19T00:35:27;15.52;;;11.45;;
65535;SDS011;52145;49.342;9.116;2022-08-19T00:37:53;13.00;;;11.65;;
65535;SDS011;52145;49.342;9.116;2022-08-19T00:40:19;14.25;;;12.35;;
65535;SDS011;52145;49.342;9.116;2022-08-19T00:42:45;13.70;;;11.23;;
65535;SDS011;52145;49.342;9.116;2022-08-19T00:45:16;14.05;;;11.68;;
65535;SDS011;52145;49.342;9.116;2022-08-19T00:47:49;14.45;;;11.63;;
65535;SDS011;52145;49.342;9.116;2022-08-19T00:50:15;13.27;;;11.07;;
65535;SDS011;52145;49.342;9.116;2022-08-19T00:52:43;15.13;;;10.73;;
65535;SDS011;52145;49.342;9.116;2022-08-19T00:55:16;13.63;;;11.05;;
65535;SDS011;52145;49.342;9.116;2022-08-19T00:57:48;13.60;;;10.52;;
65535;SDS011;52145;49.342;9.116;2022-08-19T01:00:19;14.00;;;11.93;;
65535;SDS011;52145;49.342;9.116;2022-08-19T01:02:46;13.77;;;11.07;;
65535;SDS011;52145;49.342;9.116;2022-08-19T01:05:20;14.43;;;11.60;;
65535;SDS011;52145;49.342;9.116;2022-08-19T01:07:49;15.38;;;11.23;;
65535;SDS011;52145;49.342;9.116;2022-08-19T01:10:16;13.75;;;11.07;;
65535;SDS011;52145;49.342;9.116;2022-08-19T01:12:44;15.52;;;11.23;;
65535;SDS011;52145;49.342;9.116;2022-08-19T01:15:12;14.88;;;11.45;;
65535;SDS011;52145;49.342;9.116;2022-08-19T01:17:41;14.25;;;11.65;;
65535;SDS011;52145;49.342;9.116;2022-08-19T01:20:11;13.55;;;11.50;;
65535;SDS011;52145;49.342;9.116;2022-08-19T01:22:42;16.27;;;12.63;;
65535;SDS011;52145;49.342;9.116;2022-08-19T01:25:10;13.30;;;11.73;;
65535;SDS011;52145;49.342;9.116;2022-08-19T01:27:39;15.65;;;12.20;;
65535;SDS011;52145;49.342;9.116;2022-08-19T01:30:06;14.57;;;12.05;;
65535;SDS011;52145;49.342;9.116;2022-08-19T01:32:32;15.10;;;12.48;;
65535;SDS011;52145;49.342;9.116;2022-08-19T01:34:58;17.27;;;11.23;;
65535;SDS011;52145;49.342;9.116;2022-08-19T01:37:26;14.27;;;11.82;;
65535;SDS011;52145;49.342;9.116;2022-08-19T01:39:52;15.82;;;11.70;;
65535;SDS011;52145;49.342;9.116;2022-08-19T01:42:18;15.35;;;12.60;;
65535;SDS011;52145;49.342;9.116;2022-08-19T01:44:44;13.40;;;11.23;;
65535;SDS011;52145;49.342;9.116;2022-08-19T01:47:10;14.30;;;12.55;;
65535;SDS011;52145;49.342;9.116;2022-08-19T01:49:36;13.55;;;11.40;;
65535;SDS011;52145;49.342;9.116;2022-08-19T01:52:02;14.82;;;11.82;;
65535;SDS011;52145;49.342;9.116;2022-08-19T01:54:28;14.95;;;12.45;;
65535;SDS011;52145;49.342;9.116;2022-08-19T01:56:56;15.50;;;12.32;;
65535;SDS011;52145;49.342;9.116;2022-08-19T01:59:26;19.17;;;12.68;;
65535;SDS011;52145;49.342;9.116;2022-08-19T02:01:52;17.35;;;13.35;;
65535;SDS011;52145;49.342;9.116;2022-08-19T02:04:17;15.30;;;12.48;;
65535;SDS011;52145;49.342;9.116;2022-08-19T02:06:43;15.90;;;12.80;;
65535;SDS011;52145;49.342;9.116;2022-08-19T02:09:09;16.63;;;13.00;;
65535;SDS011;52145;49.342;9.116;2022-08-19T02:11:35;16.35;;;13.50;;
65535;SDS011;52145;49.342;9.116;2022-08-19T02:14:02;15.15;;;12.23;;
65535;SDS011;52145;49.342;9.116;2022-08-19T02:16:30;15.90;;;12.10;;
65535;SDS011;52145;49.342;9.116;2022-08-19T02:18:56;17.13;;;12.82;;
65535;SDS011;52145;49.342;9.116;2022-08-19T02:21:24;16.38;;;12.65;;
65535;SDS011;52145;49.342;9.116;2022-08-19T02:23:50;17.50;;;13.95;;
65535;SDS011;52145;49.342;9.116;2022-08-19T02:26:16;16.73;;;12.68;;
65535;SDS011;52145;49.342;9.116;2022-08-19T02:28:43;16.92;;;13.77;;
65535;SDS011;52145;49.342;9.116;2022-08-19T02:31:10;21.08;;;14.23;;
65535;SDS011;52145;49.342;9.116;2022-08-19T02:33:40;16.02;;;13.55;;
65535;SDS011;52145;49.342;9.116;2022-08-19T02:36:06;18.02;;;13.93;;
65535;SDS011;52145;49.342;9.116;2022-08-19T02:38:33;18.95;;;13.85;;
65535;SDS011;52145;49.342;9.116;2022-08-19T02:41:00;18.05;;;13.57;;
65535;SDS011;52145;49.342;9.116;2022-08-19T02:43:28;19.92;;;13.85;;
65535;SDS011;52145;49.342;9.116;2022-08-19T02:45:55;19.10;;;13.98;;
65535;SDS011;52145;49.342;9.116;2022-08-19T02:48:21;24.35;;;15.27;;
65535;SDS011;52145;49.342;9.116;2022-08-19T02:50:49;16.40;;;13.50;;
65535;SDS011;52145;49.342;9.116;2022-08-19T02:53:23;15.77;;;12.55;;
65535;SDS011;52145;49.342;9.116;2022-08-19T02:55:50;18.33;;;13.52;;
65535;SDS011;52145;49.342;9.116;2022-08-19T02:58:17;17.50;;;14.60;;
65535;SDS011;52145;49.342;9.116;2022-08-19T03:00:44;21.27;;;14.95;;
65535;SDS011;52145;49.342;9.116;2022-08-19T03:03:11;23.63;;;15.05;;
65535;SDS011;52145;49.342;9.116;2022-08-19T03:05:37;21.75;;;15.63;;
65535;SDS011;52145;49.342;9.116;2022-08-19T03:08:04;21.27;;;15.95;;
65535;SDS011;52145;49.342;9.116;2022-08-19T03:10:30;22.92;;;16.02;;
65535;SDS011;52145;49.342;9.116;2022-08-19T03:12:57;21.35;;;15.80;;
65535;SDS011;52145;49.342;9.116;2022-08-19T03:15:22;27.77;;;16.92;;
65535;SDS011;52145;49.342;9.116;2022-08-19T03:17:48;21.35;;;15.82;;
65535;SDS011;52145;49.342;9.116;2022-08-19T03:20:13;20.10;;;14.90;;
65535;SDS011;52145;49.342;9.116;2022-08-19T03:22:39;21.95;;;16.33;;
65535;SDS011;52145;49.342;9.116;2022-08-19T03:25:04;20.08;;;14.52;;
65535;SDS011;52145;49.342;9.116;2022-08-19T03:27:30;21.88;;;16.00;;
65535;SDS011;52145;49.342;9.116;2022-08-19T03:29:56;20.75;;;14.88;;
65535;SDS011;52145;49.342;9.116;2022-08-19T03:32:22;21.63;;;15.07;;
65535;SDS011;52145;49.342;9.116;2022-08-19T03:34:47;23.30;;;15.48;;
65535;SDS011;52145;49.342;9.116;2022-08-19T03:37:13;22.13;;;15.40;;
65535;SDS011;52145;49.342;9.116;2022-08-19T03:39:39;20.80;;;14.65;;
65535;SDS011;52145;49.342;9.116;2022-08-19T03:42:06;21.20;;;15.23;;
65535;SDS011;52145;49.342;9.116;2022-08-19T03:44:33;20.13;;;15.20;;
65535;SDS011;52145;49.342;9.116;2022-08-19T03:46:59;22.92;;;16.50;;
65535;SDS011;52145;49.342;9.116;2022-08-19T03:49:26;20.33;;;14.48;;
65535;SDS011;52145;49.342;9.116;2022-08-19T03:51:53;17.70;;;13.30;;
65535;SDS011;52145;49.342;9.116;2022-08-19T03:54:21;21.98;;;14.93;;
65535;SDS011;52145;49.342;9.116;2022-08-19T03:56:49;19.60;;;14.18;;
65535;SDS011;52145;49.342;9.116;2022-08-19T03:59:22;22.00;;;15.02;;
65535;SDS011;52145;49.342;9.116;2022-08-19T04:01:56;18.77;;;14.48;;
65535;SDS011;52145;49.342;9.116;2022-08-19T04:04:24;25.88;;;15.50;;
65535;SDS011;52145;49.342;9.116;2022-08-19T04:06:50;21.63;;;14.68;;
65535;SDS011;52145;49.342;9.116;2022-08-19T04:09:17;20.38;;;14.90;;
65535;SDS011;52145;49.342;9.116;2022-08-19T04:11:45;23.65;;;15.57;;
65535;SDS011;52145;49.342;9.116;2022-08-19T04:14:14;20.40;;;15.13;;
65535;SDS011;52145;49.342;9.116;2022-08-19T04:16:43;24.88;;;15.00;;
65535;SDS011;52145;49.342;9.116;2022-08-19T04:19:09;21.17;;;15.10;;
65535;SDS011;52145;49.342;9.116;2022-08-19T04:21:36;19.50;;;14.48;;
65535;SDS011;52145;49.342;9.116;2022-08-19T04:24:01;20.33;;;14.70;;
65535;SDS011;52145;49.342;9.116;2022-08-19T04:26:29;22.08;;;15.32;;
65535;SDS011;52145;49.342;9.116;2022-08-19T04:28:59;20.08;;;14.68;;
65535;SDS011;52145;49.342;9.116;2022-08-19T04:31:29;23.90;;;14.85;;
65535;SDS011;52145;49.342;9.116;2022-08-19T04:33:57;19.70;;;15.23;;
65535;SDS011;52145;49.342;9.116;2022-08-19T04:36:29;18.85;;;13.98;;
65535;SDS011;52145;49.342;9.116;2022-08-19T04:38:57;20.55;;;14.63;;
65535;SDS011;52145;49.342;9.116;2022-08-19T04:41:28;19.83;;;15.60;;
65535;SDS011;52145;49.342;9.116;2022-08-19T04:44:12;17.98;;;13.57;;
65535;SDS011;52145;49.342;9.116;2022-08-19T04:46:39;19.92;;;14.25;;
65535;SDS011;52145;49.342;9.116;2022-08-19T04:49:05;19.30;;;14.38;;
65535;SDS011;52145;49.342;9.116;2022-08-19T04:51:33;21.85;;;14.55;;
65535;SDS011;52145;49.342;9.116;2022-08-19T04:54:00;17.35;;;13.25;;
65535;SDS011;52145;49.342;9.116;2022-08-19T04:56:27;18.35;;;13.57;;
65535;SDS011;52145;49.342;9.116;2022-08-19T04:58:53;18.65;;;13.88;;
65535;SDS011;52145;49.342;9.116;2022-08-19T05:01:26;21.00;;;14.20;;
65535;SDS011;52145;49.342;9.116;2022-08-19T05:03:53;17.48;;;13.52;;
65535;SDS011;52145;49.342;9.116;2022-08-19T05:06:20;18.92;;;13.70;;
65535;SDS011;52145;49.342;9.116;2022-08-19T05:08:46;19.27;;;13.23;;
65535;SDS011;52145;49.342;9.116;2022-08-19T05:11:13;19.75;;;13.95;;
65535;SDS011;52145;49.342;9.116;2022-08-19T05:13:45;17.92;;;12.45;;
65535;SDS011;52145;49.342;9.116;2022-08-19T05:16:13;19.08;;;13.55;;
65535;SDS011;52145;49.342;9.116;2022-08-19T05:18:40;18.38;;;13.65;;
65535;SDS011;52145;49.342;9.116;2022-08-19T05:21:26;20.15;;;12.55;;
65535;SDS011;52145;49.342;9.116;2022-08-19T05:24:10;18.58;;;12.93;;
65535;SDS011;52145;49.342;9.116;2022-08-19T05:26:39;18.42;;;12.88;;
65535;SDS011;52145;49.342;9.116;2022-08-19T05:29:06;19.73;;;13.48;;
65535;SDS011;52145;49.342;9.116;2022-08-19T05:31:35;17.98;;;11.90;;
65535;SDS011;52145;49.342;9.116;2022-08-19T05:34:03;17.55;;;12.57;;
65535;SDS011;52145;49.342;9.116;2022-08-19T05:36:32;20.98;;;13.50;;
65535;SDS011;52145;49.342;9.116;2022-08-19T05:39:00;15.35;;;10.85;;
65535;SDS011;52145;49.342;9.116;2022-08-19T05:41:27;14.75;;;10.75;;
65535;SDS011;52145;49.342;9.116;2022-08-19T05:43:58;18.23;;;11.95;;
65535;SDS011;52145;49.342;9.116;2022-08-19T05:46:27;16.85;;;11.32;;
65535;SDS011;52145;49.342;9.116;2022-08-19T05:48:53;14.60;;;10.57;;
65535;SDS011;52145;49.342;9.116;2022-08-19T05:51:21;17.55;;;11.20;;
65535;SDS011;52145;49.342;9.116;2022-08-19T05:53:47;15.30;;;10.60;;
65535;SDS011;52145;49.342;9.116;2022-08-19T05:56:15;15.23;;;10.43;;
65535;SDS011;52145;49.342;9.116;2022-08-19T05:58:41;14.32;;;10.52;;
65535;SDS011;52145;49.342;9.116;2022-08-19T06:01:10;16.63;;;11.13;;
65535;SDS011;52145;49.342;9.116;2022-08-19T06:03:42;17.58;;;12.10;;
65535;SDS011;52145;49.342;9.116;2022-08-19T06:06:08;14.85;;;10.10;;
65535;SDS011;52145;49.342;9.116;2022-08-19T06:08:36;14.50;;;10.57;;
65535;SDS011;52145;49.342;9.116;2022-08-19T06:11:16;18.00;;;10.52;;
65535;SDS011;52145;49.342;9.116;2022-08-19T06:13:44;14.70;;;9.32;;
65535;SDS011;52145;49.342;9.116;2022-08-19T06:16:12;12.57;;;9.95;;
65535;SDS011;52145;49.342;9.116;2022-08-19T06:18:44;14.45;;;9.50;;
65535;SDS011;52145;49.342;9.116;2022-08-19T06:21:10;16.58;;;10.27;;
65535;SDS011;52145;49.342;9.116;2022-08-19T06:23:35;13.77;;;9.70;;
65535;SDS011;52145;49.342;9.116;2022-08-19T06:26:01;14.40;;;10.38;;
65535;SDS011;52145;49.342;9.116;2022-08-19T06:28:26;12.95;;;9.13;;
65535;SDS011;52145;49.342;9.116;2022-08-19T06:30:52;15.77;;;9.68;;
65535;SDS011;52145;49.342;9.116;2022-08-19T06:33:17;13.65;;;9.65;;
65535;SDS011;52145;49.342;9.116;2022-08-19T06:35:43;15.60;;;10.20;;
65535;SDS011;52145;49.342;9.116;2022-08-19T06:38:08;14.38;;;9.98;;
65535;SDS011;52145;49.342;9.116;2022-08-19T06:40:34;11.82;;;9.32;;
65535;SDS011;52145;49.342;9.116;2022-08-19T06:43:01;12.48;;;9.13;;
65535;SDS011;52145;49.342;9.116;2022-08-19T06:45:27;13.40;;;9.98;;
65535;SDS011;52145;49.342;9.116;2022-08-19T06:47:53;15.30;;;9.48;;
65535;SDS011;52145;49.342;9.116;2022-08-19T06:50:22;13.13;;;10.15;;
65535;SDS011;52145;49.342;9.116;2022-08-19T06:52:48;13.57;;;9.85;;
65535;SDS011;52145;49.342;9.116;2022-08-19T06:55:14;11.68;;;9.00;;
65535;SDS011;52145;49.342;9.116;2022-08-19T06:57:40;11.32;;;9.05;;
65535;SDS011;52145;49.342;9.116;2022-08-19T07:00:07;14.82;;;10.20;;
65535;SDS011;52145;49.342;9.116;2022-08-19T07:02:38;13.27;;;9.70;;
65535;SDS011;52145;49.342;9.116;2022-08-19T07:05:04;12.50;;;8.60;;
65535;SDS011;52145;49.342;9.116;2022-08-19T07:07:30;13.88;;;9.63;;
65535;SDS011;52145;49.342;9.116;2022-08-19T07:09:56;17.17;;;9.02;;
65535;SDS011;52145;49.342;9.116;2022-08-19T07:12:22;12.80;;;8.52;;
65535;SDS011;52145;49.342;9.116;2022-08-19T07:14:47;12.27;;;9.00;;
65535;SDS011;52145;49.342;9.116;2022-08-19T07:17:14;12.55;;;8.77;;
65535;SDS011;52145;49.342;9.116;2022-08-19T07:19:40;12.38;;;8.73;;
65535;SDS011;52145;49.342;9.116;2022-08-19T07:22:08;12.23;;;9.02;;
65535;SDS011;52145;49.342;9.116;2022-08-19T07:24:34;14.45;;;9.00;;
65535;SDS011;52145;49.342;9.116;2022-08-19T07:27:02;15.32;;;10.30;;
65535;SDS011;52145;49.342;9.116;2022-08-19T07:29:30;16.17;;;9.10;;
65535;SDS011;52145;49.342;9.116;2022-08-19T07:31:58;12.93;;;9.40;;
65535;SDS011;52145;49.342;9.116;2022-08-19T07:34:24;19.05;;;9.85;;
65535;SDS011;52145;49.342;9.116;2022-08-19T07:36:51;13.00;;;9.75;;
65535;SDS011;52145;49.342;9.116;2022-08-19T07:39:19;14.43;;;9.43;;
65535;SDS011;52145;49.342;9.116;2022-08-19T07:41:47;14.50;;;9.60;;
65535;SDS011;52145;49.342;9.116;2022-08-19T07:44:14;16.77;;;9.82;;
65535;SDS011;52145;49.342;9.116;2022-08-19T07:46:41;10.63;;;8.35;;
65535;SDS011;52145;49.342;9.116;2022-08-19T07:49:10;11.85;;;9.35;;
65535;SDS011;52145;49.342;9.116;2022-08-19T07:51:42;15.43;;;9.50;;
65535;SDS011;52145;49.342;9.116;2022-08-19T07:54:08;12.55;;;9.40;;
65535;SDS011;52145;49.342;9.116;2022-08-19T07:56:33;15.07;;;8.63;;
65535;SDS011;52145;49.342;9.116;2022-08-19T07:58:59;11.00;;;8.40;;
65535;SDS011;52145;49.342;9.116;2022-08-19T08:01:25;10.95;;;7.90;;
65535;SDS011;52145;49.342;9.116;2022-08-19T08:03:53;14.57;;;8.95;;
65535;SDS011;52145;49.342;9.116;2022-08-19T08:06:38;13.02;;;8.45;;
65535;SDS011;52145;49.342;9.116;2022-08-19T08:09:24;11.95;;;8.23;;
65535;SDS011;52145;49.342;9.116;2022-08-19T08:11:53;13.52;;;8.65;;
65535;SDS011;52145;49.342;9.116;2022-08-19T08:14:30;12.95;;;8.07;;
65535;SDS011;52145;49.342;9.116;2022-08-19T08:16:58;14.13;;;8.75;;
65535;SDS011;52145;49.342;9.116;2022-08-19T08:19:25;12.10;;;7.53;;
65535;SDS011;52145;49.342;9.116;2022-08-19T08:21:55;9.90;;;7.90;;
65535;SDS011;52145;49.342;9.116;2022-08-19T08:24:22;13.82;;;7.93;;
65535;SDS011;52145;49.342;9.116;2022-08-19T08:26:49;11.40;;;7.60;;
65535;SDS011;52145;49.342;9.116;2022-08-19T08:29:15;16.17;;;7.65;;
65535;SDS011;52145;49.342;9.116;2022-08-19T08:31:41;10.50;;;6.68;;
65535;SDS011;52145;49.342;9.116;2022-08-19T08:34:09;11.43;;;7.20;;
65535;SDS011;52145;49.342;9.116;2022-08-19T08:36:36;12.20;;;6.78;;
65535;SDS011;52145;49.342;9.116;2022-08-19T08:39:18;9.13;;;6.60;;
65535;SDS011;52145;49.342;9.116;2022-08-19T08:41:53;9.60;;;6.30;;
65535;SDS011;52145;49.342;9.116;2022-08-19T08:44:39;10.95;;;6.18;;
65535;SDS011;52145;49.342;9.116;2022-08-19T08:47:17;9.02;;;6.32;;
65535;SDS011;52145;49.342;9.116;2022-08-19T08:52:18;8.82;;;6.13;;
65535;SDS011;52145;49.342;9.116;2022-08-19T08:54:49;10.63;;;5.85;;
65535;SDS011;52145;49.342;9.116;2022-08-19T08:57:19;11.52;;;5.78;;
65535;SDS011;52145;49.342;9.116;2022-08-19T08:59:52;12.35;;;5.90;;
65535;SDS011;52145;49.342;9.116;2022-08-19T09:02:21;10.85;;;6.15;;
65535;SDS011;52145;49.342;9.116;2022-08-19T09:04:47;8.57;;;6.00;;
65535;SDS011;52145;49.342;9.116;2022-08-19T09:15:40;7.70;;;5.72;;
65535;SDS011;52145;49.342;9.116;2022-08-19T09:18:10;8.20;;;5.35;;
65535;SDS011;52145;49.342;9.116;2022-08-19T09:20:36;7.47;;;5.05;;
65535;SDS011;52145;49.342;9.116;2022-08-19T09:23:01;9.77;;;5.32;;
65535;SDS011;52145;49.342;9.116;2022-08-19T09:25:27;8.30;;;5.03;;
65535;SDS011;52145;49.342;9.116;2022-08-19T09:27:53;11.27;;;5.68;;
65535;SDS011;52145;49.342;9.116;2022-08-19T09:30:25;10.75;;;5.18;;
65535;SDS011;52145;49.342;9.116;2022-08-19T09:32:52;7.78;;;4.38;;
65535;SDS011;52145;49.342;9.116;2022-08-19T09:35:23;7.30;;;4.90;;
65535;SDS011;52145;49.342;9.116;2022-08-19T09:37:51;7.43;;;4.30;;
65535;SDS011;52145;49.342;9.116;2022-08-19T09:40:16;5.72;;;4.45;;
65535;SDS011;52145;49.342;9.116;2022-08-19T09:42:46;11.30;;;5.22;;
65535;SDS011;52145;49.342;9.116;2022-08-19T09:45:12;8.05;;;4.40;;
65535;SDS011;52145;49.342;9.116;2022-08-19T09:47:43;11.05;;;3.88;;
65535;SDS011;52145;49.342;9.116;2022-08-19T09:50:10;6.82;;;4.13;;
65535;SDS011;52145;49.342;9.116;2022-08-19T09:52:37;7.28;;;4.30;;
65535;SDS011;52145;49.342;9.116;2022-08-19T09:55:04;8.25;;;4.00;;
65535;SDS011;52145;49.342;9.116;2022-08-19T09:57:30;7.32;;;3.75;;
65535;SDS011;52145;49.342;9.116;2022-08-19T09:59:56;6.72;;;3.83;;
65535;SDS011;52145;49.342;9.116;2022-08-19T10:02:22;7.32;;;3.53;;
65535;SDS011;52145;49.342;9.116;2022-08-19T10:04:47;7.38;;;4.03;;
65535;SDS011;52145;49.342;9.116;2022-08-19T10:07:32;6.23;;;3.50;;
65535;SDS011;52145;49.342;9.116;2022-08-19T10:09:58;5.95;;;3.47;;
65535;SDS011;52145;49.342;9.116;2022-08-19T10:12:23;11.65;;;4.13;;
65535;SDS011;52145;49.342;9.116;2022-08-19T10:14:49;8.30;;;3.92;;
65535;SDS011;52145;49.342;9.116;2022-08-19T10:17:16;4.57;;;3.42;;
65535;SDS011;52145;49.342;9.116;2022-08-19T10:19:42;4.53;;;3.40;;
65535;SDS011;52145;49.342;9.116;2022-08-19T10:22:08;7.60;;;3.85;;
65535;SDS011;52145;49.342;9.116;2022-08-19T10:24:36;5.50;;;3.63;;
65535;SDS011;52145;49.342;9.116;2022-08-19T10:27:01;7.28;;;3.60;;
65535;SDS011;52145;49.342;9.116;2022-08-19T10:29:28;11.55;;;4.10;;
65535;SDS011;52145;49.342;9.116;2022-08-19T10:31:54;7.15;;;3.63;;
65535;SDS011;52145;49.342;9.116;2022-08-19T10:34:22;9.38;;;3.92;;
65535;SDS011;52145;49.342;9.116;2022-08-19T10:36:48;5.55;;;3.30;;
65535;SDS011;52145;49.342;9.116;2022-08-19T10:39:14;8.45;;;3.75;;
65535;SDS011;52145;49.342;9.116;2022-08-19T10:41:40;4.85;;;3.55;;
65535;SDS011;52145;49.342;9.116;2022-08-19T10:44:08;5.63;;;3.28;;
65535;SDS011;52145;49.342;9.116;2022-08-19T10:46:37;4.38;;;3.05;;
65535;SDS011;52145;49.342;9.116;2022-08-19T10:49:06;5.78;;;3.30;;
65535;SDS011;52145;49.342;9.116;2022-08-19T10:51:33;5.47;;;3.28;;
65535;SDS011;52145;49.342;9.116;2022-08-19T10:54:18;6.80;;;3.35;;
65535;SDS011;52145;49.342;9.116;2022-08-19T10:56:44;6.18;;;3.10;;
65535;SDS011;52145;49.342;9.116;2022-08-19T10:59:22;7.15;;;3.40;;
65535;SDS011;52145;49.342;9.116;2022-08-19T11:01:52;7.32;;;3.55;;
65535;SDS011;52145;49.342;9.116;2022-08-19T11:04:19;4.38;;;3.15;;
65535;SDS011;52145;49.342;9.116;2022-08-19T11:06:47;5.03;;;2.95;;
65535;SDS011;52145;49.342;9.116;2022-08-19T11:09:14;5.95;;;3.40;;
65535;SDS011;52145;49.342;9.116;2022-08-19T11:11:45;5.20;;;3.25;;
65535;SDS011;52145;49.342;9.116;2022-08-19T11:14:14;5.53;;;3.15;;
65535;SDS011;52145;49.342;9.116;2022-08-19T11:16:41;5.00;;;3.22;;
65535;SDS011;52145;49.342;9.116;2022-08-19T11:19:08;4.47;;;3.00;;
65535;SDS011;52145;49.342;9.116;2022-08-19T11:21:37;4.30;;;3.05;;
65535;SDS011;52145;49.342;9.116;2022-08-19T11:24:07;4.65;;;3.40;;
65535;SDS011;52145;49.342;9.116;2022-08-19T11:26:35;4.38;;;2.97;;
65535;SDS011;52145;49.342;9.116;2022-08-19T11:29:02;5.18;;;3.20;;
65535;SDS011;52145;49.342;9.116;2022-08-19T11:31:31;4.60;;;2.90;;
65535;SDS011;52145;49.342;9.116;2022-08-19T11:33:58;4.93;;;3.10;;
65535;SDS011;52145;49.342;9.116;2022-08-19T11:36:27;4.85;;;3.47;;
65535;SDS011;52145;49.342;9.116;2022-08-19T11:38:53;4.55;;;3.40;;
65535;SDS011;52145;49.342;9.116;2022-08-19T11:41:19;6.65;;;3.22;;
65535;SDS011;52145;49.342;9.116;2022-08-19T11:43:48;4.97;;;3.58;;
65535;SDS011;52145;49.342;9.116;2022-08-19T11:46:14;5.70;;;3.58;;
65535;SDS011;52145;49.342;9.116;2022-08-19T11:48:41;4.45;;;3.20;;
65535;SDS011;52145;49.342;9.116;2022-08-19T11:51:12;5.30;;;3.47;;
65535;SDS011;52145;49.342;9.116;2022-08-19T11:53:39;4.43;;;3.53;;
65535;SDS011;52145;49.342;9.116;2022-08-19T11:56:06;6.93;;;2.97;;
65535;SDS011;52145;49.342;9.116;2022-08-19T11:58:33;4.68;;;3.20;;
65535;SDS011;52145;49.342;9.116;2022-08-19T12:00:59;7.60;;;3.88;;
65535;SDS011;52145;49.342;9.116;2022-08-19T12:03:25;7.93;;;3.45;;
65535;SDS011;52145;49.342;9.116;2022-08-19T12:05:51;5.97;;;3.72;;
65535;SDS011;52145;49.342;9.116;2022-08-19T12:08:17;6.32;;;3.72;;
65535;SDS011;52145;49.342;9.116;2022-08-19T12:10:43;6.20;;;3.10;;
65535;SDS011;52145;49.342;9.116;2022-08-19T12:13:10;4.43;;;3.00;;
65535;SDS011;52145;49.342;9.116;2022-08-19T12:15:40;5.68;;;3.17;;
65535;SDS011;52145;49.342;9.116;2022-08-19T12:18:07;5.65;;;3.50;;
65535;SDS011;52145;49.342;9.116;2022-08-19T12:20:34;7.72;;;3.33;;
65535;SDS011;52145;49.342;9.116;2022-08-19T12:23:01;4.60;;;3.38;;
65535;SDS011;52145;49.342;9.116;2022-08-19T12:25:27;6.75;;;3.40;;
65535;SDS011;52145;49.342;9.116;2022-08-19T12:27:53;5.07;;;3.67;;
65535;SDS011;52145;49.342;9.116;2022-08-19T12:30:19;5.03;;;3.30;;
65535;SDS011;52145;49.342;9.116;2022-08-19T12:32:45;6.45;;;3.50;;
65535;SDS011;52145;49.342;9.116;2022-08-19T12:35:10;5.65;;;3.30;;
65535;SDS011;52145;49.342;9.116;2022-08-19T12:37:37;4.32;;;3.08;;
65535;SDS011;52145;49.342;9.116;2022-08-19T12:40:03;4.97;;;3.75;;
65535;SDS011;52145;49.342;9.116;2022-08-19T12:42:30;5.25;;;3.50;;
65535;SDS011;52145;49.342;9.116;2022-08-19T12:44:55;4.45;;;3.70;;
65535;SDS011;52145;49.342;9.116;2022-08-19T12:47:21;6.03;;;3.50;;
65535;SDS011;52145;49.342;9.116;2022-08-19T12:49:47;4.95;;;3.58;;
65535;SDS011;52145;49.342;9.116;2022-08-19T12:52:13;4.90;;;3.53;;
65535;SDS011;52145;49.342;9.116;2022-08-19T12:54:41;5.35;;;3.88;;
65535;SDS011;52145;49.342;9.116;2022-08-19T12:57:08;5.68;;;3.80;;
65535;SDS011;52145;49.342;9.116;2022-08-19T12:59:35;5.28;;;3.20;;
65535;SDS011;52145;49.342;9.116;2022-08-19T13:02:03;6.43;;;3.90;;
65535;SDS011;52145;49.342;9.116;2022-08-19T13:04:30;3.90;;;3.25;;
65535;SDS011;52145;49.342;9.116;2022-08-19T13:06:59;4.80;;;3.70;;
65535;SDS011;52145;49.342;9.116;2022-08-19T13:09:25;5.97;;;3.50;;
65535;SDS011;52145;49.342;9.116;2022-08-19T13:11:51;5.65;;;3.70;;
65535;SDS011;52145;49.342;9.116;2022-08-19T13:14:16;4.63;;;3.65;;
65535;SDS011;52145;49.342;9.116;2022-08-19T13:16:42;4.85;;;3.50;;
65535;SDS011;52145;49.342;9.116;2022-08-19T13:19:08;5.20;;;3.42;;
65535;SDS011;52145;49.342;9.116;2022-08-19T13:21:33;5.32;;;3.67;;
65535;SDS011;52145;49.342;9.116;2022-08-19T13:23:59;4.20;;;3.33;;
65535;SDS011;52145;49.342;9.116;2022-08-19T13:26:25;3.92;;;3.40;;
65535;SDS011;52145;49.342;9.116;2022-08-19T13:28:50;5.65;;;3.80;;
65535;SDS011;52145;49.342;9.116;2022-08-19T13:31:35;5.13;;;3.63;;
65535;SDS011;52145;49.342;9.116;2022-08-19T13:34:30;5.28;;;3.85;;
65535;SDS011;52145;49.342;9.116;2022-08-19T13:36:59;5.60;;;4.10;;
65535;SDS011;52145;49.342;9.116;2022-08-19T13:39:25;5.13;;;4.10;;
65535;SDS011;52145;49.342;9.116;2022-08-19T13:41:50;6.13;;;4.63;;
65535;SDS011;52145;49.342;9.116;2022-08-19T13:44:16;6.70;;;4.57;;
65535;SDS011;52145;49.342;9.116;2022-08-19T13:46:43;9.70;;;4.70;;
65535;SDS011;52145;49.342;9.116;2022-08-19T13:49:13;9.63;;;4.95;;
65535;SDS011;52145;49.342;9.116;2022-08-19T13:51:39;6.45;;;5.43;;
65535;SDS011;52145;49.342;9.116;2022-08-19T13:54:06;6.07;;;4.53;;
65535;SDS011;52145;49.342;9.116;2022-08-19T13:56:33;8.25;;;5.25;;
65535;SDS011;52145;49.342;9.116;2022-08-19T13:59:00;6.15;;;4.70;;
65535;SDS011;52145;49.342;9.116;2022-08-19T14:01:25;7.05;;;5.13;;
65535;SDS011;52145;49.342;9.116;2022-08-19T14:03:51;6.38;;;4.88;;
65535;SDS011;52145;49.342;9.116;2022-08-19T14:06:17;6.75;;;4.78;;
65535;SDS011;52145;49.342;9.116;2022-08-19T14:08:44;8.80;;;5.32;;
65535;SDS011;52145;49.342;9.116;2022-08-19T14:11:10;7.13;;;4.88;;
65535;SDS011;52145;49.342;9.116;2022-08-19T14:13:36;8.50;;;5.40;;
65535;SDS011;52145;49.342;9.116;2022-08-19T14:16:05;7.53;;;4.82;;
65535;SDS011;52145;49.342;9.116;2022-08-19T14:18:35;5.70;;;4.57;;
65535;SDS011;52145;49.342;9.116;2022-08-19T14:21:01;7.10;;;4.47;;
65535;SDS011;52145;49.342;9.116;2022-08-19T14:23:27;6.70;;;4.50;;
65535;SDS011;52145;49.342;9.116;2022-08-19T14:26:02;6.00;;;4.60;;
65535;SDS011;52145;49.342;9.116;2022-08-19T14:28:32;7.47;;;5.15;;
65535;SDS011;52145;49.342;9.116;2022-08-19T14:30:58;8.63;;;4.80;;
65535;SDS011;52145;49.342;9.116;2022-08-19T14:33:24;7.13;;;4.85;;
65535;SDS011;52145;49.342;9.116;2022-08-19T14:35:49;6.78;;;4.25;;
65535;SDS011;52145;49.342;9.116;2022-08-19T14:38:16;6.85;;;3.92;;
65535;SDS011;52145;49.342;9.116;2022-08-19T14:40:43;5.68;;;3.78;;
65535;SDS011;52145;49.342;9.116;2022-08-19T14:43:10;6.70;;;4.28;;
65535;SDS011;52145;49.342;9.116;2022-08-19T14:45:36;5.93;;;4.35;;
65535;SDS011;52145;49.342;9.116;2022-08-19T14:48:03;6.00;;;4.63;;